createdAt,value
2019-01-24T00:01:45.462Z,46.40
2019-01-24T00:04:16.885Z,50.23
2019-01-24T00:06:47.398Z,51.63
2019-01-24T00:09:17.854Z,48.83
2019-01-24T00:11:48.259Z,46.23
2019-01-24T00:14:18.751Z,43.07
2019-01-24T00:16:49.216Z,47.13
2019-01-24T00:19:19.635Z,49.60
2019-01-24T00:21:50.091Z,41.93
2019-01-24T00:24:20.499Z,44.13
2019-01-24T00:26:50.951Z,47.50
2019-01-24T00:29:21.403Z,43.60
2019-01-24T00:31:51.850Z,44.37
2019-01-24T00:34:23.384Z,42.30
2019-01-24T00:36:54.102Z,43.07
2019-01-24T00:39:24.598Z,42.80
2019-01-24T00:41:55.055Z,44.70
2019-01-24T00:44:25.471Z,40.33
2019-01-24T00:46:55.931Z,41.60
2019-01-24T00:49:26.346Z,41.87
2019-01-24T00:51:56.756Z,44.30
2019-01-24T00:54:27.210Z,42.97
2019-01-24T00:56:57.627Z,44.03
2019-01-24T00:59:28.176Z,44.23
2019-01-24T01:01:58.576Z,45.63
2019-01-24T01:04:29.844Z,44.50
2019-01-24T01:07:00.502Z,45.53
2019-01-24T01:09:30.910Z,43.70
2019-01-24T01:12:01.472Z,45.03
2019-01-24T01:14:31.883Z,43.50
2019-01-24T01:17:02.324Z,43.47
2019-01-24T01:19:32.933Z,45.30
2019-01-24T01:22:03.489Z,42.07
2019-01-24T01:24:34.000Z,42.90
2019-01-24T01:27:04.547Z,41.47
2019-01-24T01:29:34.971Z,46.07
2019-01-24T01:32:05.749Z,44.40
2019-01-24T01:34:36.427Z,44.77
2019-01-24T01:37:07.195Z,42.23
2019-01-24T01:39:37.682Z,41.87
2019-01-24T01:42:08.143Z,40.10
2019-01-24T01:44:38.548Z,42.03
2019-01-24T01:47:08.956Z,43.50
2019-01-24T01:49:39.510Z,38.97
2019-01-24T01:52:09.962Z,42.77
2019-01-24T01:54:40.407Z,40.50
2019-01-24T01:57:10.818Z,40.50
2019-01-24T01:59:41.263Z,39.07
2019-01-24T02:02:11.673Z,43.50
2019-01-24T02:04:43.024Z,40.20
2019-01-24T02:07:13.723Z,36.27
2019-01-24T02:09:44.177Z,42.07
2019-01-24T02:12:14.655Z,39.63
2019-01-24T02:14:45.078Z,38.90
2019-01-24T02:17:15.530Z,42.87
2019-01-24T02:19:45.991Z,42.60
2019-01-24T02:22:16.391Z,35.80
2019-01-24T02:24:46.810Z,39.53
2019-01-24T02:27:17.255Z,40.97
2019-01-24T02:29:47.679Z,40.23
2019-01-24T02:32:18.137Z,36.83
2019-01-24T02:34:49.722Z,39.87
2019-01-24T02:37:20.282Z,34.37
2019-01-24T02:39:50.691Z,38.33
2019-01-24T02:42:21.209Z,38.97
2019-01-24T02:44:51.746Z,39.07
2019-01-24T02:47:22.261Z,40.23
2019-01-24T02:49:52.702Z,41.63
2019-01-24T02:52:23.111Z,38.37
2019-01-24T02:54:53.560Z,34.33
2019-01-24T02:57:24.007Z,37.20
2019-01-24T02:59:54.551Z,39.10
2019-01-24T03:02:24.962Z,39.47
2019-01-24T03:04:57.065Z,37.07
2019-01-24T03:07:27.574Z,40.00
2019-01-24T03:09:58.022Z,39.00
2019-01-24T03:12:28.486Z,41.03
2019-01-24T03:14:58.907Z,36.20
2019-01-24T03:17:29.399Z,36.07
2019-01-24T03:19:59.853Z,37.17
2019-01-24T03:22:30.302Z,40.10
2019-01-24T03:25:00.759Z,35.27
2019-01-24T03:27:31.175Z,36.27
2019-01-24T03:30:01.732Z,36.00
2019-01-24T03:32:32.158Z,37.03
2019-01-24T03:35:04.327Z,37.17
2019-01-24T03:37:34.750Z,32.93
2019-01-24T03:40:06.152Z,33.33
2019-01-24T03:42:36.603Z,31.37
2019-01-24T03:45:09.902Z,30.97
2019-01-24T03:47:40.313Z,31.93
2019-01-24T03:50:13.377Z,33.83
2019-01-24T03:52:43.963Z,32.23
2019-01-24T03:55:15.470Z,29.57
2019-01-24T03:57:45.992Z,30.20
2019-01-24T04:00:18.556Z,28.73
2019-01-24T04:02:49.120Z,33.27
2019-01-24T04:05:19.948Z,29.90
2019-01-24T04:07:50.627Z,27.93
2019-01-24T04:10:22.077Z,26.73
2019-01-24T04:12:52.530Z,26.30
2019-01-24T04:15:24.902Z,31.13
2019-01-24T04:17:55.419Z,23.80
2019-01-24T04:20:25.967Z,24.17
2019-01-24T04:22:56.386Z,23.07
2019-01-24T04:25:26.896Z,20.70
2019-01-24T04:27:57.314Z,17.97
2019-01-24T04:30:27.829Z,18.63
2019-01-24T04:32:58.286Z,18.00
2019-01-24T04:35:28.698Z,16.33
2019-01-24T04:37:59.118Z,16.60
2019-01-24T04:40:29.585Z,16.23
2019-01-24T04:43:00.051Z,16.07
2019-01-24T04:45:30.505Z,16.53
2019-01-24T04:48:00.973Z,15.00
2019-01-24T04:50:31.401Z,17.17
2019-01-24T04:53:01.808Z,16.27
2019-01-24T04:55:32.305Z,15.83
2019-01-24T04:58:02.793Z,13.87
2019-01-24T05:00:33.359Z,14.43
2019-01-24T05:03:03.770Z,12.63
2019-01-24T05:05:34.175Z,13.00
2019-01-24T05:08:04.630Z,12.63
2019-01-24T05:10:35.065Z,11.93
2019-01-24T05:13:05.682Z,11.17
2019-01-24T05:15:36.145Z,10.77
2019-01-24T05:18:06.767Z,10.60
2019-01-24T05:20:37.214Z,11.83
2019-01-24T05:23:07.630Z,12.03
2019-01-24T05:25:38.174Z,12.53
2019-01-24T05:28:08.691Z,11.70
2019-01-24T05:30:39.144Z,12.80
2019-01-24T05:33:09.602Z,12.63
2019-01-24T05:35:40.017Z,13.50
2019-01-24T05:38:10.438Z,12.93
2019-01-24T05:40:40.892Z,13.00
2019-01-24T05:43:11.308Z,12.77
2019-01-24T05:45:41.771Z,13.07
2019-01-24T05:48:12.183Z,13.73
2019-01-24T05:50:42.647Z,13.53
2019-01-24T05:53:13.126Z,14.17
2019-01-24T05:55:43.589Z,15.47
2019-01-24T05:58:14.015Z,10.87
2019-01-24T06:00:46.241Z,10.50
2019-01-24T06:03:16.699Z,11.50
2019-01-24T06:05:47.328Z,12.20
2019-01-24T06:08:17.778Z,13.00
2019-01-24T06:10:48.308Z,13.43
2019-01-24T06:13:18.820Z,13.63
2019-01-24T06:15:49.270Z,14.47
2019-01-24T06:18:19.679Z,15.70
2019-01-24T06:20:50.138Z,20.97
2019-01-24T06:23:20.557Z,15.10
2019-01-24T06:25:51.057Z,13.70
2019-01-24T06:28:21.559Z,17.03
2019-01-24T06:30:51.988Z,13.50
2019-01-24T06:33:22.567Z,14.87
2019-01-24T06:35:52.989Z,11.50
2019-01-24T06:38:23.453Z,11.53
2019-01-24T06:40:53.987Z,12.77
2019-01-24T06:43:24.445Z,11.23
2019-01-24T06:45:54.934Z,12.20
2019-01-24T06:48:25.407Z,11.43
2019-01-24T06:50:55.847Z,11.57
2019-01-24T06:53:26.352Z,12.33
2019-01-24T06:55:56.823Z,12.03
2019-01-24T06:58:27.295Z,11.17
2019-01-24T07:00:57.762Z,10.47
2019-01-24T07:03:28.173Z,11.00
2019-01-24T07:05:58.626Z,10.77
2019-01-24T07:08:29.057Z,14.43
2019-01-24T07:10:59.547Z,11.30
2019-01-24T07:13:29.971Z,20.43
2019-01-24T07:16:00.437Z,31.00
2019-01-24T07:18:30.896Z,19.03
2019-01-24T07:21:01.311Z,20.13
2019-01-24T07:23:31.778Z,19.27
2019-01-24T07:26:02.211Z,24.43
2019-01-24T07:28:32.643Z,38.13
2019-01-24T07:31:03.214Z,123.57
2019-01-24T07:33:33.672Z,18.10
2019-01-24T07:36:04.259Z,26.10
2019-01-24T07:38:34.685Z,22.13
2019-01-24T07:41:05.316Z,24.63
2019-01-24T07:43:35.780Z,12.80
2019-01-24T07:46:06.635Z,13.97
2019-01-24T07:48:37.107Z,33.17
2019-01-24T07:51:07.659Z,24.23
2019-01-24T07:53:38.140Z,17.70
2019-01-24T07:56:08.856Z,14.43
2019-01-24T07:58:39.272Z,14.13
2019-01-24T08:01:09.802Z,12.43
2019-01-24T08:03:40.248Z,12.80
2019-01-24T08:06:10.716Z,11.13
2019-01-24T08:08:41.182Z,10.37
2019-01-24T08:11:11.605Z,13.30
2019-01-24T08:13:42.063Z,11.83
2019-01-24T08:16:12.660Z,12.03
2019-01-24T08:18:43.132Z,12.37
2019-01-24T08:21:13.674Z,13.70
2019-01-24T08:23:44.136Z,21.63
2019-01-24T08:26:14.726Z,19.63
2019-01-24T08:28:45.155Z,14.23
2019-01-24T08:31:15.723Z,14.20
2019-01-24T08:33:46.395Z,13.87
2019-01-24T08:36:16.944Z,13.83
2019-01-24T08:38:47.377Z,14.73
2019-01-24T08:41:17.882Z,15.83
2019-01-24T08:43:48.295Z,22.77
2019-01-24T08:46:18.711Z,28.87
2019-01-24T08:48:49.277Z,26.93
2019-01-24T08:51:19.831Z,30.27
2019-01-24T08:53:50.272Z,30.30
2019-01-24T08:56:20.705Z,34.77
2019-01-24T08:58:51.370Z,39.50
2019-01-24T09:01:21.843Z,36.77
2019-01-24T09:03:52.287Z,38.63
2019-01-24T09:06:22.900Z,39.63
2019-01-24T09:08:55.911Z,42.57
2019-01-24T09:11:26.420Z,35.37
2019-01-24T09:13:56.829Z,38.47
2019-01-24T09:16:27.287Z,40.50
2019-01-24T09:18:57.880Z,38.90
2019-01-24T09:21:28.351Z,37.07
2019-01-24T09:23:58.794Z,37.20
2019-01-24T09:26:29.270Z,38.60
2019-01-24T09:28:59.745Z,40.20
2019-01-24T09:31:30.174Z,41.93
2019-01-24T09:34:00.639Z,39.90
2019-01-24T09:36:31.351Z,39.43
2019-01-24T09:39:02.303Z,39.83
2019-01-24T09:41:32.714Z,39.23
2019-01-24T09:44:03.200Z,41.37
2019-01-24T09:46:33.617Z,39.93
2019-01-24T09:49:04.207Z,41.90
2019-01-24T09:51:34.679Z,42.17
2019-01-24T09:54:05.503Z,38.80
2019-01-24T09:56:36.003Z,37.03
2019-01-24T09:59:06.997Z,34.97
2019-01-24T10:01:37.422Z,34.00
2019-01-24T10:04:07.896Z,38.00
2019-01-24T10:06:38.327Z,35.97
2019-01-24T10:09:09.645Z,34.23
2019-01-24T10:11:40.091Z,31.17
2019-01-24T10:14:10.662Z,35.93
2019-01-24T10:16:41.088Z,29.47
2019-01-24T10:19:11.543Z,27.47
2019-01-24T10:21:42.100Z,30.03
2019-01-24T10:24:12.641Z,29.30
2019-01-24T10:26:43.065Z,27.00
2019-01-24T10:29:13.645Z,26.70
2019-01-24T10:31:44.192Z,26.37
2019-01-24T10:34:14.648Z,24.73
2019-01-24T10:36:45.148Z,24.33
2019-01-24T10:39:15.688Z,24.00
2019-01-24T10:41:46.218Z,22.90
2019-01-24T10:44:16.640Z,23.07
2019-01-24T10:46:47.069Z,22.00
2019-01-24T10:49:17.531Z,22.47
2019-01-24T10:51:47.951Z,21.00
2019-01-24T10:54:18.430Z,22.50
2019-01-24T10:56:48.864Z,24.93
2019-01-24T10:59:19.426Z,24.03
2019-01-24T11:01:49.970Z,24.87
2019-01-24T11:04:20.410Z,24.37
2019-01-24T11:06:50.920Z,26.23
2019-01-24T11:09:21.349Z,25.70
2019-01-24T11:11:51.768Z,28.37
2019-01-24T11:14:22.231Z,30.03
2019-01-24T11:16:52.673Z,27.53
2019-01-24T11:19:23.240Z,25.90
2019-01-24T11:21:53.662Z,29.30
2019-01-24T11:24:24.132Z,29.37
2019-01-24T11:26:54.590Z,31.13
2019-01-24T11:29:25.048Z,28.07
2019-01-24T11:31:55.599Z,29.87
2019-01-24T11:34:26.167Z,29.50
2019-01-24T11:36:57.200Z,29.73
2019-01-24T11:39:27.964Z,31.07
2019-01-24T11:41:58.534Z,39.17
2019-01-24T11:44:29.000Z,37.23
2019-01-24T11:46:59.501Z,48.27
2019-01-24T11:49:29.936Z,33.03
2019-01-24T11:52:00.402Z,37.57
2019-01-24T11:54:30.903Z,37.17
2019-01-24T11:57:01.368Z,34.93
2019-01-24T11:59:31.964Z,34.40
2019-01-24T12:02:02.407Z,40.07
2019-01-24T12:04:32.888Z,87.87
2019-01-24T12:07:04.255Z,36.07
2019-01-24T12:09:35.917Z,37.20
2019-01-24T12:12:06.598Z,34.40
2019-01-24T12:14:37.014Z,34.60
2019-01-24T12:17:07.492Z,31.97
2019-01-24T12:19:37.990Z,33.40
2019-01-24T12:22:08.461Z,32.50
2019-01-24T12:24:38.912Z,35.47
2019-01-24T12:27:09.331Z,33.50
2019-01-24T12:29:39.805Z,33.77
2019-01-24T12:32:10.326Z,29.63
2019-01-24T12:34:40.810Z,27.13
2019-01-24T12:37:11.603Z,26.60
2019-01-24T12:39:42.039Z,27.07
2019-01-24T12:42:12.474Z,25.03
2019-01-24T12:44:42.981Z,26.87
2019-01-24T12:47:13.426Z,25.30
2019-01-24T12:49:43.858Z,25.37
2019-01-24T12:52:14.366Z,24.73
2019-01-24T12:54:44.862Z,23.63
2019-01-24T12:57:15.279Z,22.67
2019-01-24T12:59:45.782Z,23.87
2019-01-24T13:02:16.248Z,22.00
2019-01-24T13:04:46.778Z,23.37
2019-01-24T13:07:18.444Z,23.07
2019-01-24T13:09:49.021Z,23.10
2019-01-24T13:12:19.485Z,22.53
2019-01-24T13:14:49.912Z,21.30
2019-01-24T13:17:20.375Z,21.67
2019-01-24T13:19:50.790Z,23.90
2019-01-24T13:22:21.353Z,21.27
2019-01-24T13:24:51.802Z,22.80
2019-01-24T13:27:22.254Z,19.87
2019-01-24T13:29:52.674Z,19.40
2019-01-24T13:32:23.153Z,20.10
2019-01-24T13:34:53.713Z,21.20
2019-01-24T13:37:25.860Z,22.33
2019-01-24T13:39:56.395Z,23.23
2019-01-24T13:42:26.996Z,23.03
2019-01-24T13:44:57.538Z,23.70
2019-01-24T13:47:28.145Z,22.00
2019-01-24T13:49:58.622Z,24.03
2019-01-24T13:52:29.048Z,24.73
2019-01-24T13:54:59.528Z,27.43
2019-01-24T13:57:29.952Z,24.83
2019-01-24T14:00:00.469Z,25.30
2019-01-24T14:02:30.933Z,25.50
2019-01-24T14:05:01.409Z,27.10
2019-01-24T14:07:33.044Z,26.20
2019-01-24T14:10:03.880Z,26.43
2019-01-24T14:12:34.358Z,25.47
2019-01-24T14:15:06.266Z,23.57
2019-01-24T14:17:36.817Z,22.03
2019-01-24T14:20:10.656Z,23.53
2019-01-24T14:22:41.320Z,22.67
2019-01-24T14:25:14.435Z,23.33
2019-01-24T14:27:44.901Z,20.57
2019-01-24T14:30:21.293Z,17.90
2019-01-24T14:32:52.191Z,21.33
2019-01-24T14:35:23.032Z,22.37
2019-01-24T14:37:53.598Z,45.27
2019-01-24T14:40:24.114Z,23.10
2019-01-24T14:42:54.572Z,19.80
2019-01-24T14:45:27.186Z,20.33
2019-01-24T14:47:57.859Z,21.40
2019-01-24T14:50:28.711Z,22.17
2019-01-24T14:52:59.329Z,22.70
2019-01-24T14:55:29.910Z,25.27
2019-01-24T14:58:00.419Z,25.00
2019-01-24T15:00:39.363Z,28.13
2019-01-24T15:03:09.957Z,27.47
2019-01-24T15:05:40.546Z,28.43
2019-01-24T15:11:17.845Z,27.43
2019-01-24T15:13:48.660Z,27.07
2019-01-24T15:16:19.382Z,29.50
2019-01-24T15:18:50.046Z,26.50
2019-01-24T15:21:20.818Z,29.87
2019-01-24T15:23:51.355Z,29.70
2019-01-24T15:26:22.143Z,28.87
2019-01-24T15:28:52.625Z,28.90
2019-01-24T15:31:23.189Z,27.60
2019-01-24T15:33:53.653Z,30.50
2019-01-24T15:36:24.159Z,29.57
2019-01-24T15:38:54.685Z,31.73
2019-01-24T15:41:25.149Z,27.53
2019-01-24T15:43:55.620Z,26.00
2019-01-24T15:46:26.096Z,25.47
2019-01-24T15:48:56.610Z,28.40
2019-01-24T15:51:27.114Z,28.87
2019-01-24T15:53:57.579Z,30.70
2019-01-24T15:56:28.061Z,26.57
2019-01-24T15:58:58.528Z,25.67
2019-01-24T16:01:29.087Z,24.67
2019-01-24T16:03:59.604Z,25.00
2019-01-24T16:06:30.172Z,26.73
2019-01-24T16:09:00.654Z,28.33
2019-01-24T16:11:31.132Z,26.90
2019-01-24T16:14:01.603Z,26.03
2019-01-24T16:16:32.174Z,24.17
2019-01-24T16:19:02.672Z,24.87
2019-01-24T16:21:33.343Z,25.13
2019-01-24T16:24:03.938Z,20.37
2019-01-24T16:26:34.442Z,24.73
2019-01-24T16:29:05.160Z,24.93
2019-01-24T16:31:35.674Z,26.83
2019-01-24T16:34:06.485Z,25.33
2019-01-24T16:36:36.992Z,28.77
2019-01-24T16:39:09.984Z,27.53
2019-01-24T16:41:40.443Z,28.30
2019-01-24T16:44:10.941Z,27.47
2019-01-24T16:46:41.436Z,27.93
2019-01-24T16:49:11.901Z,28.63
2019-01-24T16:51:42.403Z,27.47
2019-01-24T16:54:12.870Z,28.87
2019-01-24T16:56:43.376Z,28.77
2019-01-24T16:59:13.882Z,30.73
2019-01-24T17:01:44.433Z,30.03
2019-01-24T17:04:14.948Z,30.50
2019-01-24T17:06:45.414Z,30.97
2019-01-24T17:09:15.990Z,33.30
2019-01-24T17:11:46.514Z,30.97
2019-01-24T17:14:22.300Z,30.93
2019-01-24T17:16:49.132Z,28.80
2019-01-24T17:19:19.609Z,30.33
2019-01-24T17:21:50.108Z,30.40
2019-01-24T17:24:20.570Z,30.13
2019-01-24T17:26:51.080Z,29.47
2019-01-24T17:29:21.553Z,29.27
2019-01-24T17:31:52.015Z,28.97
2019-01-24T17:34:22.526Z,31.80
2019-01-24T17:36:53.021Z,29.50
2019-01-24T17:39:23.490Z,30.50
2019-01-24T17:41:53.994Z,30.43
2019-01-24T17:44:24.490Z,30.23
2019-01-24T17:46:54.974Z,29.97
2019-01-24T17:49:25.488Z,30.30
2019-01-24T17:51:55.928Z,30.43
2019-01-24T17:54:26.437Z,33.07
2019-01-24T17:56:56.905Z,32.03
2019-01-24T17:59:27.434Z,32.53
2019-01-24T18:01:58.154Z,31.33
2019-01-24T18:04:28.629Z,34.63
2019-01-24T18:06:59.136Z,36.13
2019-01-24T18:09:29.604Z,33.67
2019-01-24T18:12:00.070Z,43.67
2019-01-24T18:14:30.674Z,37.53
2019-01-24T18:17:01.133Z,38.27
2019-01-24T18:19:31.641Z,39.83
2019-01-24T18:22:02.160Z,37.17
2019-01-24T18:24:32.626Z,35.07
2019-01-24T18:27:03.137Z,33.70
2019-01-24T18:29:33.638Z,32.07
2019-01-24T18:32:04.354Z,30.10
2019-01-24T18:34:34.814Z,30.13
2019-01-24T18:37:05.345Z,30.90
2019-01-24T18:39:35.789Z,28.90
2019-01-24T18:42:06.494Z,29.63
2019-01-24T18:44:36.953Z,32.33
2019-01-24T18:47:07.457Z,33.00
2019-01-24T18:49:37.925Z,28.50
2019-01-24T18:52:08.524Z,28.07
2019-01-24T18:54:39.002Z,28.37
2019-01-24T18:57:09.606Z,27.33
2019-01-24T18:59:40.210Z,26.27
2019-01-24T19:02:10.722Z,28.07
2019-01-24T19:04:41.198Z,28.07
2019-01-24T19:07:13.165Z,28.40
2019-01-24T19:09:44.168Z,28.27
2019-01-24T19:12:14.742Z,27.50
2019-01-24T19:14:45.210Z,25.83
2019-01-24T19:17:15.734Z,28.30
2019-01-24T19:19:46.187Z,27.07
2019-01-24T19:22:16.643Z,29.13
2019-01-24T19:24:47.158Z,27.63
2019-01-24T19:27:17.657Z,27.73
2019-01-24T19:29:48.126Z,28.67
2019-01-24T19:32:18.654Z,26.53
2019-01-24T19:34:49.114Z,29.33
2019-01-24T19:37:19.588Z,28.73
2019-01-24T19:39:50.086Z,28.63
2019-01-24T19:42:20.595Z,28.10
2019-01-24T19:44:51.111Z,29.03
2019-01-24T19:47:21.565Z,28.03
2019-01-24T19:49:52.032Z,29.00
2019-01-24T19:52:22.546Z,28.20
2019-01-24T19:54:53.013Z,28.00
2019-01-24T19:57:23.530Z,28.87
2019-01-24T19:59:54.042Z,26.33
2019-01-24T20:02:24.519Z,25.93
2019-01-24T20:04:54.985Z,22.37
2019-01-24T20:07:25.495Z,21.67
2019-01-24T20:09:55.969Z,21.90
2019-01-24T20:12:26.482Z,21.13
2019-01-24T20:14:56.932Z,21.27
2019-01-24T20:17:27.468Z,20.90
2019-01-24T20:19:57.940Z,19.60
2019-01-24T20:22:28.457Z,20.23
2019-01-24T20:24:58.955Z,20.47
2019-01-24T20:27:29.427Z,23.27
2019-01-24T20:29:59.942Z,22.70
2019-01-24T20:32:30.983Z,19.70
2019-01-24T20:35:01.538Z,18.93
2019-01-24T20:37:32.034Z,18.17
2019-01-24T20:40:02.540Z,18.30
2019-01-24T20:42:33.005Z,20.13
2019-01-24T20:45:03.646Z,20.23
2019-01-24T20:47:34.108Z,19.10
2019-01-24T20:50:04.802Z,19.07
2019-01-24T20:52:35.261Z,17.83
2019-01-24T20:55:06.681Z,17.63
2019-01-24T20:57:37.318Z,16.83
2019-01-24T21:00:13.030Z,16.60
2019-01-24T21:02:43.693Z,17.20
2019-01-24T21:05:15.713Z,19.50
2019-01-24T21:07:46.668Z,19.20
2019-01-24T21:10:19.426Z,18.80
2019-01-24T21:12:49.924Z,21.73
2019-01-24T21:15:21.214Z,21.43
2019-01-24T21:17:51.723Z,20.30
2019-01-24T21:20:26.756Z,20.47
2019-01-24T21:22:57.369Z,17.67
2019-01-24T21:25:28.425Z,17.43
2019-01-24T21:27:58.887Z,17.00
2019-01-24T21:30:34.324Z,17.50
2019-01-24T21:33:05.049Z,17.10
2019-01-24T21:35:35.667Z,17.30
2019-01-24T21:38:07.613Z,15.67
2019-01-24T21:40:38.109Z,16.83
2019-01-24T21:43:08.706Z,16.23
2019-01-24T21:45:39.525Z,16.27
2019-01-24T21:48:10.274Z,16.43
2019-01-24T21:50:40.935Z,16.83
2019-01-24T21:53:11.552Z,16.23
2019-01-24T21:55:42.061Z,15.77
2019-01-24T21:58:12.674Z,17.77
2019-01-24T22:00:43.186Z,16.63
2019-01-24T22:03:13.693Z,15.63
2019-01-24T22:05:44.260Z,17.03
2019-01-24T22:08:14.738Z,15.90
2019-01-24T22:10:45.414Z,16.77
2019-01-24T22:13:15.931Z,17.00
2019-01-24T22:15:46.397Z,16.40
2019-01-24T22:18:17.002Z,16.53
2019-01-24T22:20:47.461Z,17.23
2019-01-24T22:23:17.964Z,16.93
2019-01-24T22:25:48.425Z,19.43
2019-01-24T22:28:18.882Z,19.27
2019-01-24T22:30:54.958Z,22.90
2019-01-24T22:33:25.459Z,21.87
2019-01-24T22:35:55.922Z,21.03
2019-01-24T22:38:26.432Z,21.57
2019-01-24T22:40:57.010Z,20.17
2019-01-24T22:43:27.481Z,22.50
2019-01-24T22:45:58.084Z,24.47
2019-01-24T22:48:28.590Z,26.43
2019-01-24T22:50:59.058Z,26.67
2019-01-24T22:53:29.562Z,26.70
2019-01-24T22:56:00.053Z,28.27
2019-01-24T22:58:30.554Z,27.27
2019-01-24T23:01:30.859Z,27.97
2019-01-24T23:04:11.325Z,29.53
2019-01-24T23:06:41.916Z,31.77
2019-01-24T23:09:13.024Z,35.17
2019-01-24T23:11:43.487Z,33.23
2019-01-24T23:14:13.981Z,37.60
2019-01-24T23:16:44.546Z,37.17
2019-01-24T23:19:15.015Z,39.37
2019-01-24T23:21:45.530Z,42.40
2019-01-24T23:24:15.999Z,45.90
2019-01-24T23:26:46.509Z,40.33
2019-01-24T23:29:16.981Z,43.00
2019-01-24T23:31:47.488Z,45.47
2019-01-24T23:34:17.953Z,43.17
2019-01-24T23:36:48.447Z,43.17
2019-01-24T23:39:18.902Z,38.20
2019-01-24T23:41:49.401Z,39.43
2019-01-24T23:44:19.998Z,41.17
2019-01-24T23:46:50.459Z,40.90
2019-01-24T23:49:20.973Z,43.57
2019-01-24T23:51:51.479Z,39.03
2019-01-24T23:54:21.945Z,38.63
2019-01-24T23:56:52.448Z,35.73
2019-01-24T23:59:22.910Z,33.53
